sensor_id;sensor_type;location;lat;lon;timestamp;P1;durP1;ratioP1;P2;durP2;ratioP2
42972;SDS011;28610;51.214;6.962;2022-12-20T00:00:19;7.47;;;4.37;;
42972;SDS011;28610;51.214;6.962;2022-12-20T00:03:05;8.37;;;4.80;;
42972;SDS011;28610;51.214;6.962;2022-12-20T00:05:51;7.27;;;4.60;;
42972;SDS011;28610;51.214;6.962;2022-12-20T00:08:37;7.90;;;4.67;;
42972;SDS011;28610;51.214;6.962;2022-12-20T00:11:24;7.33;;;4.57;;
42972;SDS011;28610;51.214;6.962;2022-12-20T00:14:10;7.80;;;4.33;;
42972;SDS011;28610;51.214;6.962;2022-12-20T00:16:56;6.93;;;4.40;;
42972;SDS011;28610;51.214;6.962;2022-12-20T00:19:42;7.43;;;4.33;;
42972;SDS011;28610;51.214;6.962;2022-12-20T00:22:27;8.00;;;4.63;;
42972;SDS011;28610;51.214;6.962;2022-12-20T00:25:13;7.73;;;4.57;;
42972;SDS011;28610;51.214;6.962;2022-12-20T00:28:00;6.30;;;4.47;;
42972;SDS011;28610;51.214;6.962;2022-12-20T00:30:51;7.87;;;4.07;;
42972;SDS011;28610;51.214;6.962;2022-12-20T00:33:37;5.87;;;4.33;;
42972;SDS011;28610;51.214;6.962;2022-12-20T00:36:24;7.93;;;3.90;;
42972;SDS011;28610;51.214;6.962;2022-12-20T00:39:10;8.17;;;4.40;;
42972;SDS011;28610;51.214;6.962;2022-12-20T00:41:56;6.40;;;4.17;;
42972;SDS011;28610;51.214;6.962;2022-12-20T00:44:43;6.60;;;4.33;;
42972;SDS011;28610;51.214;6.962;2022-12-20T00:47:28;13.03;;;4.40;;
42972;SDS011;28610;51.214;6.962;2022-12-20T00:50:15;9.47;;;4.80;;
42972;SDS011;28610;51.214;6.962;2022-12-20T00:53:01;7.00;;;4.40;;
42972;SDS011;28610;51.214;6.962;2022-12-20T00:55:46;7.10;;;4.50;;
42972;SDS011;28610;51.214;6.962;2022-12-20T00:58:32;5.87;;;4.07;;
42972;SDS011;28610;51.214;6.962;2022-12-20T01:01:20;6.17;;;4.07;;
42972;SDS011;28610;51.214;6.962;2022-12-20T01:04:06;5.77;;;4.20;;
42972;SDS011;28610;51.214;6.962;2022-12-20T01:06:51;7.97;;;4.10;;
42972;SDS011;28610;51.214;6.962;2022-12-20T01:09:37;6.97;;;4.07;;
42972;SDS011;28610;51.214;6.962;2022-12-20T01:12:23;8.37;;;4.33;;
42972;SDS011;28610;51.214;6.962;2022-12-20T01:15:09;7.27;;;4.20;;
42972;SDS011;28610;51.214;6.962;2022-12-20T01:17:56;5.17;;;3.67;;
42972;SDS011;28610;51.214;6.962;2022-12-20T01:20:41;6.90;;;4.20;;
42972;SDS011;28610;51.214;6.962;2022-12-20T01:23:27;7.53;;;4.00;;
42972;SDS011;28610;51.214;6.962;2022-12-20T01:26:14;5.73;;;3.90;;
42972;SDS011;28610;51.214;6.962;2022-12-20T01:29:00;9.17;;;4.50;;
42972;SDS011;28610;51.214;6.962;2022-12-20T01:31:45;6.60;;;4.23;;
42972;SDS011;28610;51.214;6.962;2022-12-20T01:34:32;6.03;;;4.30;;
42972;SDS011;28610;51.214;6.962;2022-12-20T01:37:18;7.07;;;4.00;;
42972;SDS011;28610;51.214;6.962;2022-12-20T01:40:04;8.47;;;4.70;;
42972;SDS011;28610;51.214;6.962;2022-12-20T01:42:50;7.00;;;4.30;;
42972;SDS011;28610;51.214;6.962;2022-12-20T01:45:35;6.53;;;4.07;;
42972;SDS011;28610;51.214;6.962;2022-12-20T01:48:22;6.43;;;4.33;;
42972;SDS011;28610;51.214;6.962;2022-12-20T01:51:10;7.53;;;4.43;;
42972;SDS011;28610;51.214;6.962;2022-12-20T01:53:57;8.67;;;4.33;;
42972;SDS011;28610;51.214;6.962;2022-12-20T01:56:46;9.20;;;4.57;;
42972;SDS011;28610;51.214;6.962;2022-12-20T01:59:34;8.03;;;4.57;;
42972;SDS011;28610;51.214;6.962;2022-12-20T02:02:21;7.87;;;4.53;;
42972;SDS011;28610;51.214;6.962;2022-12-20T02:05:07;5.53;;;4.20;;
42972;SDS011;28610;51.214;6.962;2022-12-20T02:07:54;6.10;;;4.37;;
42972;SDS011;28610;51.214;6.962;2022-12-20T02:10:44;8.43;;;4.50;;
42972;SDS011;28610;51.214;6.962;2022-12-20T02:13:34;7.80;;;4.83;;
42972;SDS011;28610;51.214;6.962;2022-12-20T02:16:23;8.27;;;4.70;;
42972;SDS011;28610;51.214;6.962;2022-12-20T02:19:14;9.83;;;4.83;;
42972;SDS011;28610;51.214;6.962;2022-12-20T02:22:08;8.77;;;4.50;;
42972;SDS011;28610;51.214;6.962;2022-12-20T02:25:02;8.53;;;4.80;;
42972;SDS011;28610;51.214;6.962;2022-12-20T02:27:57;6.63;;;4.77;;
42972;SDS011;28610;51.214;6.962;2022-12-20T02:30:45;8.33;;;4.83;;
42972;SDS011;28610;51.214;6.962;2022-12-20T02:33:32;8.27;;;5.20;;
42972;SDS011;28610;51.214;6.962;2022-12-20T02:36:17;9.47;;;4.90;;
42972;SDS011;28610;51.214;6.962;2022-12-20T02:39:03;6.60;;;4.97;;
42972;SDS011;28610;51.214;6.962;2022-12-20T02:41:49;9.07;;;5.03;;
42972;SDS011;28610;51.214;6.962;2022-12-20T02:44:37;9.17;;;5.10;;
42972;SDS011;28610;51.214;6.962;2022-12-20T02:47:46;7.30;;;4.93;;
42972;SDS011;28610;51.214;6.962;2022-12-20T02:50:33;8.70;;;4.87;;
42972;SDS011;28610;51.214;6.962;2022-12-20T02:53:21;8.20;;;5.27;;
42972;SDS011;28610;51.214;6.962;2022-12-20T02:56:08;9.23;;;5.40;;
42972;SDS011;28610;51.214;6.962;2022-12-20T02:58:57;7.57;;;5.43;;
42972;SDS011;28610;51.214;6.962;2022-12-20T03:01:46;10.87;;;6.13;;
42972;SDS011;28610;51.214;6.962;2022-12-20T03:04:34;10.23;;;5.63;;
42972;SDS011;28610;51.214;6.962;2022-12-20T03:07:21;13.33;;;5.87;;
42972;SDS011;28610;51.214;6.962;2022-12-20T03:10:08;9.63;;;5.40;;
42972;SDS011;28610;51.214;6.962;2022-12-20T03:12:53;9.37;;;5.20;;
42972;SDS011;28610;51.214;6.962;2022-12-20T03:15:39;9.47;;;5.60;;
42972;SDS011;28610;51.214;6.962;2022-12-20T03:18:25;9.23;;;5.50;;
42972;SDS011;28610;51.214;6.962;2022-12-20T03:21:12;9.20;;;5.50;;
42972;SDS011;28610;51.214;6.962;2022-12-20T03:23:57;9.40;;;5.80;;
42972;SDS011;28610;51.214;6.962;2022-12-20T03:26:43;9.30;;;5.07;;
42972;SDS011;28610;51.214;6.962;2022-12-20T03:29:29;11.10;;;5.53;;
42972;SDS011;28610;51.214;6.962;2022-12-20T03:32:14;8.13;;;5.47;;
42972;SDS011;28610;51.214;6.962;2022-12-20T03:34:59;9.60;;;5.33;;
42972;SDS011;28610;51.214;6.962;2022-12-20T03:37:46;9.70;;;5.50;;
42972;SDS011;28610;51.214;6.962;2022-12-20T03:40:32;10.17;;;5.70;;
42972;SDS011;28610;51.214;6.962;2022-12-20T03:43:18;8.93;;;5.50;;
42972;SDS011;28610;51.214;6.962;2022-12-20T03:46:03;9.77;;;5.20;;
42972;SDS011;28610;51.214;6.962;2022-12-20T03:48:49;9.93;;;5.50;;
42972;SDS011;28610;51.214;6.962;2022-12-20T03:51:34;11.70;;;5.57;;
42972;SDS011;28610;51.214;6.962;2022-12-20T03:54:22;9.30;;;5.53;;
42972;SDS011;28610;51.214;6.962;2022-12-20T03:57:08;12.40;;;5.83;;
42972;SDS011;28610;51.214;6.962;2022-12-20T03:59:54;10.53;;;6.03;;
42972;SDS011;28610;51.214;6.962;2022-12-20T04:02:40;10.03;;;5.87;;
42972;SDS011;28610;51.214;6.962;2022-12-20T04:05:25;11.10;;;6.30;;
42972;SDS011;28610;51.214;6.962;2022-12-20T04:08:11;10.37;;;5.77;;
42972;SDS011;28610;51.214;6.962;2022-12-20T04:10:58;10.93;;;6.40;;
42972;SDS011;28610;51.214;6.962;2022-12-20T04:14:01;14.83;;;6.70;;
42972;SDS011;28610;51.214;6.962;2022-12-20T04:16:47;10.83;;;6.33;;
42972;SDS011;28610;51.214;6.962;2022-12-20T04:19:33;10.93;;;6.50;;
42972;SDS011;28610;51.214;6.962;2022-12-20T04:22:18;14.33;;;7.07;;
42972;SDS011;28610;51.214;6.962;2022-12-20T04:25:04;11.20;;;6.27;;
42972;SDS011;28610;51.214;6.962;2022-12-20T04:27:51;13.30;;;7.07;;
42972;SDS011;28610;51.214;6.962;2022-12-20T04:30:37;15.37;;;6.93;;
42972;SDS011;28610;51.214;6.962;2022-12-20T04:33:22;12.90;;;6.60;;
42972;SDS011;28610;51.214;6.962;2022-12-20T04:36:08;13.67;;;6.80;;
42972;SDS011;28610;51.214;6.962;2022-12-20T04:38:54;13.03;;;7.27;;
42972;SDS011;28610;51.214;6.962;2022-12-20T04:41:40;11.97;;;7.33;;
42972;SDS011;28610;51.214;6.962;2022-12-20T04:44:27;13.40;;;7.20;;
42972;SDS011;28610;51.214;6.962;2022-12-20T04:47:12;11.03;;;6.37;;
42972;SDS011;28610;51.214;6.962;2022-12-20T04:49:58;13.97;;;7.30;;
42972;SDS011;28610;51.214;6.962;2022-12-20T04:52:44;11.53;;;6.40;;
42972;SDS011;28610;51.214;6.962;2022-12-20T04:55:48;14.47;;;6.83;;
42972;SDS011;28610;51.214;6.962;2022-12-20T04:58:33;13.83;;;7.63;;
42972;SDS011;28610;51.214;6.962;2022-12-20T05:01:20;12.17;;;6.93;;
42972;SDS011;28610;51.214;6.962;2022-12-20T05:04:06;11.67;;;6.90;;
42972;SDS011;28610;51.214;6.962;2022-12-20T05:06:52;13.37;;;7.13;;
42972;SDS011;28610;51.214;6.962;2022-12-20T05:09:37;11.20;;;6.70;;
42972;SDS011;28610;51.214;6.962;2022-12-20T05:12:23;13.43;;;7.10;;
42972;SDS011;28610;51.214;6.962;2022-12-20T05:15:09;13.80;;;6.90;;
42972;SDS011;28610;51.214;6.962;2022-12-20T05:17:56;13.03;;;6.90;;
42972;SDS011;28610;51.214;6.962;2022-12-20T05:20:42;11.97;;;6.57;;
42972;SDS011;28610;51.214;6.962;2022-12-20T05:23:28;9.83;;;6.60;;
42972;SDS011;28610;51.214;6.962;2022-12-20T05:26:32;13.30;;;6.60;;
42972;SDS011;28610;51.214;6.962;2022-12-20T05:29:18;13.80;;;6.80;;
42972;SDS011;28610;51.214;6.962;2022-12-20T05:32:03;12.30;;;7.07;;
42972;SDS011;28610;51.214;6.962;2022-12-20T05:34:50;15.00;;;6.83;;
42972;SDS011;28610;51.214;6.962;2022-12-20T05:37:36;10.53;;;6.87;;
42972;SDS011;28610;51.214;6.962;2022-12-20T05:40:21;12.93;;;6.90;;
42972;SDS011;28610;51.214;6.962;2022-12-20T05:43:07;14.10;;;6.93;;
42972;SDS011;28610;51.214;6.962;2022-12-20T05:45:53;13.27;;;6.90;;
42972;SDS011;28610;51.214;6.962;2022-12-20T05:48:38;12.03;;;6.70;;
42972;SDS011;28610;51.214;6.962;2022-12-20T05:51:25;10.33;;;6.73;;
42972;SDS011;28610;51.214;6.962;2022-12-20T05:54:11;13.43;;;6.67;;
42972;SDS011;28610;51.214;6.962;2022-12-20T05:56:57;11.83;;;6.93;;
42972;SDS011;28610;51.214;6.962;2022-12-20T05:59:42;10.33;;;6.13;;
42972;SDS011;28610;51.214;6.962;2022-12-20T06:02:28;12.97;;;6.50;;
42972;SDS011;28610;51.214;6.962;2022-12-20T06:05:13;9.97;;;6.30;;
42972;SDS011;28610;51.214;6.962;2022-12-20T06:08:00;10.17;;;5.87;;
42972;SDS011;28610;51.214;6.962;2022-12-20T06:10:46;10.40;;;6.53;;
42972;SDS011;28610;51.214;6.962;2022-12-20T06:13:32;13.53;;;7.23;;
42972;SDS011;28610;51.214;6.962;2022-12-20T06:16:17;11.57;;;6.60;;
42972;SDS011;28610;51.214;6.962;2022-12-20T06:19:05;13.80;;;6.73;;
42972;SDS011;28610;51.214;6.962;2022-12-20T06:21:51;10.63;;;6.67;;
42972;SDS011;28610;51.214;6.962;2022-12-20T06:24:38;11.53;;;6.20;;
42972;SDS011;28610;51.214;6.962;2022-12-20T06:27:23;9.60;;;6.37;;
42972;SDS011;28610;51.214;6.962;2022-12-20T06:30:09;9.80;;;5.73;;
42972;SDS011;28610;51.214;6.962;2022-12-20T06:32:55;11.07;;;6.30;;
42972;SDS011;28610;51.214;6.962;2022-12-20T06:35:40;9.77;;;6.40;;
42972;SDS011;28610;51.214;6.962;2022-12-20T06:38:26;9.60;;;5.70;;
42972;SDS011;28610;51.214;6.962;2022-12-20T06:41:13;12.73;;;6.33;;
42972;SDS011;28610;51.214;6.962;2022-12-20T06:43:58;9.03;;;5.60;;
42972;SDS011;28610;51.214;6.962;2022-12-20T06:46:44;10.77;;;6.17;;
42972;SDS011;28610;51.214;6.962;2022-12-20T06:49:29;10.40;;;5.50;;
42972;SDS011;28610;51.214;6.962;2022-12-20T06:52:15;9.80;;;5.87;;
42972;SDS011;28610;51.214;6.962;2022-12-20T06:55:00;11.50;;;5.77;;
42972;SDS011;28610;51.214;6.962;2022-12-20T06:57:48;11.10;;;6.17;;
42972;SDS011;28610;51.214;6.962;2022-12-20T07:00:34;10.87;;;6.10;;
42972;SDS011;28610;51.214;6.962;2022-12-20T07:03:19;9.07;;;5.73;;
42972;SDS011;28610;51.214;6.962;2022-12-20T07:06:05;9.00;;;5.67;;
42972;SDS011;28610;51.214;6.962;2022-12-20T07:08:50;11.30;;;6.13;;
42972;SDS011;28610;51.214;6.962;2022-12-20T07:11:36;9.80;;;5.90;;
42972;SDS011;28610;51.214;6.962;2022-12-20T07:14:24;9.57;;;5.77;;
42972;SDS011;28610;51.214;6.962;2022-12-20T07:17:09;11.50;;;5.70;;
42972;SDS011;28610;51.214;6.962;2022-12-20T07:19:55;10.50;;;5.93;;
42972;SDS011;28610;51.214;6.962;2022-12-20T07:22:41;12.27;;;6.17;;
42972;SDS011;28610;51.214;6.962;2022-12-20T07:25:26;8.00;;;5.43;;
42972;SDS011;28610;51.214;6.962;2022-12-20T07:28:12;10.07;;;5.90;;
42972;SDS011;28610;51.214;6.962;2022-12-20T07:31:00;9.33;;;5.60;;
42972;SDS011;28610;51.214;6.962;2022-12-20T07:33:46;8.87;;;5.70;;
42972;SDS011;28610;51.214;6.962;2022-12-20T07:36:32;9.37;;;5.60;;
42972;SDS011;28610;51.214;6.962;2022-12-20T07:39:18;8.77;;;5.53;;
42972;SDS011;28610;51.214;6.962;2022-12-20T07:42:03;9.97;;;5.67;;
42972;SDS011;28610;51.214;6.962;2022-12-20T07:44:49;7.63;;;5.67;;
42972;SDS011;28610;51.214;6.962;2022-12-20T07:47:36;11.53;;;5.50;;
42972;SDS011;28610;51.214;6.962;2022-12-20T07:50:21;11.80;;;6.00;;
42972;SDS011;28610;51.214;6.962;2022-12-20T07:53:07;10.97;;;6.20;;
42972;SDS011;28610;51.214;6.962;2022-12-20T07:55:54;10.80;;;6.07;;
42972;SDS011;28610;51.214;6.962;2022-12-20T07:58:41;7.83;;;5.40;;
42972;SDS011;28610;51.214;6.962;2022-12-20T08:01:28;9.13;;;5.57;;
42972;SDS011;28610;51.214;6.962;2022-12-20T08:04:16;12.63;;;5.73;;
42972;SDS011;28610;51.214;6.962;2022-12-20T08:07:02;7.83;;;5.20;;
42972;SDS011;28610;51.214;6.962;2022-12-20T08:09:48;9.27;;;5.47;;
42972;SDS011;28610;51.214;6.962;2022-12-20T08:12:34;10.73;;;5.30;;
42972;SDS011;28610;51.214;6.962;2022-12-20T08:15:20;11.63;;;5.63;;
42972;SDS011;28610;51.214;6.962;2022-12-20T08:18:06;13.33;;;5.67;;
42972;SDS011;28610;51.214;6.962;2022-12-20T08:20:53;8.87;;;5.10;;
42972;SDS011;28610;51.214;6.962;2022-12-20T08:23:39;10.43;;;5.30;;
42972;SDS011;28610;51.214;6.962;2022-12-20T08:26:24;9.57;;;5.67;;
42972;SDS011;28610;51.214;6.962;2022-12-20T08:29:10;7.60;;;4.73;;
42972;SDS011;28610;51.214;6.962;2022-12-20T08:31:55;10.50;;;5.00;;
42972;SDS011;28610;51.214;6.962;2022-12-20T08:34:41;8.33;;;5.47;;
42972;SDS011;28610;51.214;6.962;2022-12-20T08:37:28;13.30;;;5.40;;
42972;SDS011;28610;51.214;6.962;2022-12-20T08:40:13;10.67;;;5.33;;
42972;SDS011;28610;51.214;6.962;2022-12-20T08:42:59;7.00;;;4.77;;
42972;SDS011;28610;51.214;6.962;2022-12-20T08:45:50;9.50;;;5.30;;
42972;SDS011;28610;51.214;6.962;2022-12-20T08:48:36;9.53;;;5.43;;
42972;SDS011;28610;51.214;6.962;2022-12-20T08:51:22;10.13;;;5.10;;
42972;SDS011;28610;51.214;6.962;2022-12-20T08:54:09;9.07;;;5.70;;
42972;SDS011;28610;51.214;6.962;2022-12-20T08:56:54;7.57;;;5.17;;
42972;SDS011;28610;51.214;6.962;2022-12-20T08:59:41;9.60;;;5.30;;
42972;SDS011;28610;51.214;6.962;2022-12-20T09:02:27;8.93;;;4.43;;
42972;SDS011;28610;51.214;6.962;2022-12-20T09:05:12;7.23;;;5.10;;
42972;SDS011;28610;51.214;6.962;2022-12-20T09:07:58;11.57;;;4.90;;
42972;SDS011;28610;51.214;6.962;2022-12-20T09:10:44;10.27;;;5.10;;
42972;SDS011;28610;51.214;6.962;2022-12-20T09:13:30;10.03;;;5.37;;
42972;SDS011;28610;51.214;6.962;2022-12-20T09:16:16;7.40;;;4.63;;
42972;SDS011;28610;51.214;6.962;2022-12-20T09:19:02;8.07;;;5.40;;
42972;SDS011;28610;51.214;6.962;2022-12-20T09:21:48;7.60;;;4.60;;
42972;SDS011;28610;51.214;6.962;2022-12-20T09:24:33;9.23;;;5.40;;
42972;SDS011;28610;51.214;6.962;2022-12-20T09:27:20;10.67;;;5.47;;
42972;SDS011;28610;51.214;6.962;2022-12-20T09:30:06;9.67;;;5.10;;
42972;SDS011;28610;51.214;6.962;2022-12-20T09:32:52;11.07;;;4.87;;
42972;SDS011;28610;51.214;6.962;2022-12-20T09:35:43;8.37;;;4.87;;
42972;SDS011;28610;51.214;6.962;2022-12-20T09:38:29;9.43;;;5.27;;
42972;SDS011;28610;51.214;6.962;2022-12-20T09:41:18;10.37;;;5.53;;
42972;SDS011;28610;51.214;6.962;2022-12-20T09:44:11;13.90;;;5.23;;
42972;SDS011;28610;51.214;6.962;2022-12-20T09:46:58;9.20;;;5.00;;
42972;SDS011;28610;51.214;6.962;2022-12-20T09:49:47;9.43;;;5.10;;
42972;SDS011;28610;51.214;6.962;2022-12-20T09:52:38;9.90;;;4.97;;
42972;SDS011;28610;51.214;6.962;2022-12-20T09:55:30;8.87;;;4.73;;
42972;SDS011;28610;51.214;6.962;2022-12-20T09:58:24;11.13;;;4.97;;
42972;SDS011;28610;51.214;6.962;2022-12-20T10:01:15;7.73;;;5.00;;
42972;SDS011;28610;51.214;6.962;2022-12-20T10:04:03;8.93;;;4.77;;
42972;SDS011;28610;51.214;6.962;2022-12-20T10:09:58;10.00;;;4.93;;
42972;SDS011;28610;51.214;6.962;2022-12-20T10:12:48;10.07;;;4.97;;
42972;SDS011;28610;51.214;6.962;2022-12-20T10:15:39;7.57;;;4.90;;
42972;SDS011;28610;51.214;6.962;2022-12-20T10:18:33;10.93;;;5.03;;
42972;SDS011;28610;51.214;6.962;2022-12-20T10:21:24;7.53;;;4.50;;
42972;SDS011;28610;51.214;6.962;2022-12-20T10:24:15;7.97;;;4.40;;
42972;SDS011;28610;51.214;6.962;2022-12-20T10:27:06;7.40;;;4.53;;
42972;SDS011;28610;51.214;6.962;2022-12-20T10:29:55;7.87;;;4.23;;
42972;SDS011;28610;51.214;6.962;2022-12-20T10:32:41;6.73;;;4.20;;
42972;SDS011;28610;51.214;6.962;2022-12-20T10:35:30;10.23;;;4.73;;
42972;SDS011;28610;51.214;6.962;2022-12-20T10:38:18;8.77;;;4.73;;
42972;SDS011;28610;51.214;6.962;2022-12-20T10:41:10;8.53;;;4.90;;
42972;SDS011;28610;51.214;6.962;2022-12-20T10:43:59;8.50;;;4.63;;
42972;SDS011;28610;51.214;6.962;2022-12-20T10:46:47;9.87;;;5.07;;
42972;SDS011;28610;51.214;6.962;2022-12-20T10:49:34;9.17;;;4.37;;
42972;SDS011;28610;51.214;6.962;2022-12-20T10:52:21;8.37;;;4.70;;
42972;SDS011;28610;51.214;6.962;2022-12-20T10:58:11;11.30;;;5.07;;
42972;SDS011;28610;51.214;6.962;2022-12-20T11:01:05;7.97;;;4.57;;
42972;SDS011;28610;51.214;6.962;2022-12-20T11:03:55;8.20;;;4.17;;
42972;SDS011;28610;51.214;6.962;2022-12-20T11:06:42;7.63;;;4.20;;
42972;SDS011;28610;51.214;6.962;2022-12-20T11:09:30;6.20;;;3.90;;
42972;SDS011;28610;51.214;6.962;2022-12-20T11:12:16;6.60;;;4.20;;
42972;SDS011;28610;51.214;6.962;2022-12-20T11:15:09;5.37;;;3.93;;
42972;SDS011;28610;51.214;6.962;2022-12-20T11:17:55;7.57;;;4.07;;
42972;SDS011;28610;51.214;6.962;2022-12-20T11:20:44;6.00;;;3.87;;
42972;SDS011;28610;51.214;6.962;2022-12-20T11:23:33;19.47;;;8.53;;
42972;SDS011;28610;51.214;6.962;2022-12-20T11:26:28;5.97;;;3.70;;
42972;SDS011;28610;51.214;6.962;2022-12-20T11:29:20;5.33;;;3.87;;
42972;SDS011;28610;51.214;6.962;2022-12-20T11:32:13;8.17;;;4.10;;
42972;SDS011;28610;51.214;6.962;2022-12-20T11:35:06;9.13;;;3.90;;
42972;SDS011;28610;51.214;6.962;2022-12-20T11:37:55;5.93;;;3.80;;
42972;SDS011;28610;51.214;6.962;2022-12-20T11:40:43;6.60;;;3.60;;
42972;SDS011;28610;51.214;6.962;2022-12-20T11:43:36;4.83;;;3.30;;
42972;SDS011;28610;51.214;6.962;2022-12-20T11:46:27;5.83;;;3.70;;
42972;SDS011;28610;51.214;6.962;2022-12-20T11:49:20;7.43;;;3.80;;
42972;SDS011;28610;51.214;6.962;2022-12-20T11:52:15;5.27;;;3.60;;
42972;SDS011;28610;51.214;6.962;2022-12-20T11:55:06;7.73;;;3.70;;
42972;SDS011;28610;51.214;6.962;2022-12-20T11:58:01;4.43;;;3.63;;
42972;SDS011;28610;51.214;6.962;2022-12-20T12:00:51;5.93;;;3.60;;
42972;SDS011;28610;51.214;6.962;2022-12-20T12:03:38;9.43;;;3.63;;
42972;SDS011;28610;51.214;6.962;2022-12-20T12:06:26;4.63;;;3.47;;
42972;SDS011;28610;51.214;6.962;2022-12-20T12:09:14;6.73;;;3.70;;
42972;SDS011;28610;51.214;6.962;2022-12-20T12:12:02;5.67;;;3.70;;
42972;SDS011;28610;51.214;6.962;2022-12-20T12:14:49;11.37;;;4.10;;
42972;SDS011;28610;51.214;6.962;2022-12-20T12:17:40;9.83;;;3.83;;
42972;SDS011;28610;51.214;6.962;2022-12-20T12:20:30;7.10;;;3.50;;
42972;SDS011;28610;51.214;6.962;2022-12-20T12:23:20;6.63;;;3.60;;
42972;SDS011;28610;51.214;6.962;2022-12-20T12:26:09;8.57;;;3.70;;
42972;SDS011;28610;51.214;6.962;2022-12-20T12:28:57;6.93;;;4.00;;
42972;SDS011;28610;51.214;6.962;2022-12-20T12:31:44;7.00;;;3.83;;
42972;SDS011;28610;51.214;6.962;2022-12-20T12:34:43;9.20;;;3.90;;
42972;SDS011;28610;51.214;6.962;2022-12-20T12:37:35;5.20;;;3.70;;
42972;SDS011;28610;51.214;6.962;2022-12-20T12:43:40;9.33;;;3.93;;
42972;SDS011;28610;51.214;6.962;2022-12-20T12:46:29;9.03;;;4.03;;
42972;SDS011;28610;51.214;6.962;2022-12-20T12:49:16;7.93;;;3.73;;
42972;SDS011;28610;51.214;6.962;2022-12-20T12:52:05;8.40;;;3.90;;
42972;SDS011;28610;51.214;6.962;2022-12-20T12:54:50;6.97;;;4.13;;
42972;SDS011;28610;51.214;6.962;2022-12-20T12:57:49;8.60;;;4.60;;
42972;SDS011;28610;51.214;6.962;2022-12-20T13:00:47;8.10;;;5.10;;
42972;SDS011;28610;51.214;6.962;2022-12-20T13:03:43;8.73;;;5.47;;
42972;SDS011;28610;51.214;6.962;2022-12-20T13:09:41;13.97;;;5.23;;
42972;SDS011;28610;51.214;6.962;2022-12-20T13:15:51;11.97;;;5.40;;
42972;SDS011;28610;51.214;6.962;2022-12-20T13:18:37;9.73;;;5.43;;
42972;SDS011;28610;51.214;6.962;2022-12-20T13:21:36;11.00;;;5.93;;
42972;SDS011;28610;51.214;6.962;2022-12-20T13:27:24;13.70;;;6.10;;
42972;SDS011;28610;51.214;6.962;2022-12-20T13:33:18;11.63;;;6.37;;
42972;SDS011;28610;51.214;6.962;2022-12-20T13:42:14;17.47;;;6.93;;
42972;SDS011;28610;51.214;6.962;2022-12-20T13:45:03;13.63;;;7.07;;
42972;SDS011;28610;51.214;6.962;2022-12-20T13:47:50;18.53;;;6.97;;
42972;SDS011;28610;51.214;6.962;2022-12-20T13:50:39;11.83;;;6.00;;
42972;SDS011;28610;51.214;6.962;2022-12-20T13:53:26;13.30;;;6.87;;
42972;SDS011;28610;51.214;6.962;2022-12-20T13:56:30;13.50;;;6.93;;
42972;SDS011;28610;51.214;6.962;2022-12-20T13:59:20;15.37;;;6.53;;
42972;SDS011;28610;51.214;6.962;2022-12-20T14:02:09;14.07;;;6.20;;
42972;SDS011;28610;51.214;6.962;2022-12-20T14:04:59;13.37;;;6.17;;
42972;SDS011;28610;51.214;6.962;2022-12-20T14:07:50;11.03;;;5.73;;
42972;SDS011;28610;51.214;6.962;2022-12-20T14:10:37;13.60;;;6.40;;
42972;SDS011;28610;51.214;6.962;2022-12-20T14:13:23;13.07;;;5.93;;
42972;SDS011;28610;51.214;6.962;2022-12-20T14:16:09;11.07;;;5.60;;
42972;SDS011;28610;51.214;6.962;2022-12-20T14:19:00;13.80;;;5.93;;
42972;SDS011;28610;51.214;6.962;2022-12-20T14:21:46;10.13;;;5.93;;
42972;SDS011;28610;51.214;6.962;2022-12-20T14:24:32;10.47;;;5.60;;
42972;SDS011;28610;51.214;6.962;2022-12-20T14:27:18;10.27;;;5.70;;
42972;SDS011;28610;51.214;6.962;2022-12-20T14:30:04;11.03;;;6.17;;
42972;SDS011;28610;51.214;6.962;2022-12-20T14:32:50;9.87;;;5.90;;
42972;SDS011;28610;51.214;6.962;2022-12-20T14:35:37;9.63;;;5.73;;
42972;SDS011;28610;51.214;6.962;2022-12-20T14:38:30;10.93;;;5.83;;
42972;SDS011;28610;51.214;6.962;2022-12-20T14:41:29;9.47;;;5.87;;
42972;SDS011;28610;51.214;6.962;2022-12-20T14:44:15;9.57;;;6.10;;
42972;SDS011;28610;51.214;6.962;2022-12-20T14:47:03;11.50;;;6.00;;
42972;SDS011;28610;51.214;6.962;2022-12-20T14:49:50;10.77;;;6.20;;
42972;SDS011;28610;51.214;6.962;2022-12-20T14:52:37;10.20;;;6.23;;
42972;SDS011;28610;51.214;6.962;2022-12-20T14:55:24;12.63;;;6.80;;
42972;SDS011;28610;51.214;6.962;2022-12-20T14:58:21;13.30;;;7.00;;
42972;SDS011;28610;51.214;6.962;2022-12-20T15:01:16;16.57;;;7.37;;
42972;SDS011;28610;51.214;6.962;2022-12-20T15:04:02;18.20;;;10.07;;
42972;SDS011;28610;51.214;6.962;2022-12-20T15:06:47;17.00;;;10.50;;
42972;SDS011;28610;51.214;6.962;2022-12-20T15:09:36;17.90;;;8.90;;
42972;SDS011;28610;51.214;6.962;2022-12-20T15:12:22;15.30;;;9.83;;
42972;SDS011;28610;51.214;6.962;2022-12-20T15:15:10;22.07;;;12.20;;
42972;SDS011;28610;51.214;6.962;2022-12-20T15:17:57;16.57;;;12.30;;
42972;SDS011;28610;51.214;6.962;2022-12-20T15:20:42;13.83;;;8.10;;
42972;SDS011;28610;51.214;6.962;2022-12-20T15:23:29;16.47;;;11.70;;
42972;SDS011;28610;51.214;6.962;2022-12-20T15:26:16;16.27;;;7.07;;
42972;SDS011;28610;51.214;6.962;2022-12-20T15:29:02;13.30;;;7.40;;
42972;SDS011;28610;51.214;6.962;2022-12-20T15:31:49;16.23;;;7.27;;
42972;SDS011;28610;51.214;6.962;2022-12-20T15:34:35;12.07;;;6.73;;
42972;SDS011;28610;51.214;6.962;2022-12-20T15:37:22;16.17;;;6.90;;
42972;SDS011;28610;51.214;6.962;2022-12-20T15:40:09;18.30;;;8.30;;
42972;SDS011;28610;51.214;6.962;2022-12-20T15:42:59;16.27;;;9.57;;
42972;SDS011;28610;51.214;6.962;2022-12-20T15:45:45;14.17;;;9.10;;
42972;SDS011;28610;51.214;6.962;2022-12-20T15:48:31;12.70;;;7.30;;
42972;SDS011;28610;51.214;6.962;2022-12-20T15:51:18;15.40;;;7.60;;
42972;SDS011;28610;51.214;6.962;2022-12-20T15:54:06;16.40;;;7.37;;
42972;SDS011;28610;51.214;6.962;2022-12-20T15:56:52;13.43;;;7.70;;
42972;SDS011;28610;51.214;6.962;2022-12-20T15:59:39;13.80;;;8.33;;
42972;SDS011;28610;51.214;6.962;2022-12-20T16:02:25;16.60;;;8.20;;
42972;SDS011;28610;51.214;6.962;2022-12-20T16:05:12;14.67;;;7.17;;
42972;SDS011;28610;51.214;6.962;2022-12-20T16:07:57;14.13;;;7.20;;
42972;SDS011;28610;51.214;6.962;2022-12-20T16:10:44;14.60;;;7.67;;
42972;SDS011;28610;51.214;6.962;2022-12-20T16:13:30;14.37;;;7.57;;
42972;SDS011;28610;51.214;6.962;2022-12-20T16:16:19;16.30;;;7.10;;
42972;SDS011;28610;51.214;6.962;2022-12-20T16:19:06;20.57;;;7.97;;
42972;SDS011;28610;51.214;6.962;2022-12-20T16:21:52;12.53;;;7.00;;
42972;SDS011;28610;51.214;6.962;2022-12-20T16:24:37;10.97;;;7.13;;
42972;SDS011;28610;51.214;6.962;2022-12-20T16:27:23;10.63;;;6.33;;
42972;SDS011;28610;51.214;6.962;2022-12-20T16:30:09;16.77;;;7.60;;
42972;SDS011;28610;51.214;6.962;2022-12-20T16:32:56;13.80;;;7.07;;
42972;SDS011;28610;51.214;6.962;2022-12-20T16:35:42;15.00;;;7.50;;
42972;SDS011;28610;51.214;6.962;2022-12-20T16:38:27;10.83;;;7.00;;
42972;SDS011;28610;51.214;6.962;2022-12-20T16:41:13;15.00;;;7.10;;
42972;SDS011;28610;51.214;6.962;2022-12-20T16:44:00;11.93;;;6.83;;
42972;SDS011;28610;51.214;6.962;2022-12-20T16:46:46;13.70;;;7.77;;
42972;SDS011;28610;51.214;6.962;2022-12-20T16:49:33;16.83;;;8.73;;
42972;SDS011;28610;51.214;6.962;2022-12-20T16:52:19;11.90;;;8.00;;
42972;SDS011;28610;51.214;6.962;2022-12-20T16:55:06;12.50;;;8.20;;
42972;SDS011;28610;51.214;6.962;2022-12-20T16:57:52;11.37;;;6.83;;
42972;SDS011;28610;51.214;6.962;2022-12-20T17:00:38;13.60;;;7.60;;
42972;SDS011;28610;51.214;6.962;2022-12-20T17:03:23;12.90;;;8.00;;
42972;SDS011;28610;51.214;6.962;2022-12-20T17:06:10;17.67;;;9.50;;
42972;SDS011;28610;51.214;6.962;2022-12-20T17:08:56;15.23;;;9.53;;